NCAR-RAP Real-Time Weather Data

Output produced by METARs form (20 January 2020  09:21 UTC)
found at http://weather.rap.ucar.edu/surface/
 
KBGR 200853Z 33008KT 7SM -SN OVC070 M10/M13 A2991 RMK AO2 SLP135 P0000 60000 T11001128 53014
KBGR 200753Z 33010KT 9SM -SN OVC065 M10/M13 A2989 RMK AO2 SLP127 P0000 T11001128
KBGR 200653Z 32010KT 5SM -SN OVC048 M10/M13 A2988 RMK AO2 SLP124 P0000 T11001128
KBGR 200553Z 31008KT 7SM -SN OVC047 M09/M13 A2987 RMK AO2 SLP121 4/008 P0000 60000 T10941128 11072 21094 51022
KBGR 200453Z 32007KT 7SM -SN OVC040 M09/M12 A2985 RMK AO2 SLP112 P0000 T10941122 410501111
KBGR 200353Z 31010KT 5SM -SN OVC037 M09/M12 A2984 RMK AO2 SLP108 P0000 T10941122
KBGR 200253Z 33010KT 9SM -SN OVC034 M09/M12 A2981 RMK AO2 SLP098 P0000 60000 T10891122 53014
KBGR 200153Z 32012KT 9SM -SN FEW014 OVC032 M09/M12 A2979 RMK AO2 SLP092 P0000 T10891122
KBGR 200053Z 31006KT 9SM -SN BKN014 BKN019 OVC032 M08/M11 A2977 RMK AO2 SLP086 P0000 T10831106
KBGR 200048Z 32007KT 9SM -SN SCT014 OVC032 M08/M11 A2977 RMK AO2 P0000
KBGR 192353Z 34008KT 7SM -SN SCT019 OVC029 M08/M10 A2974 RMK AO2 SNB31 SLP076 4/008 P0000 60000 T10781100 11050 21083 51039
KBGR 192253Z 32006KT 10SM OVC026 M08/M11 A2971 RMK AO2 SLP064 T10781106
KBGR 192153Z 35008KT 10SM OVC020 M08/M11 A2967 RMK AO2 SLP051 BINOVC T10781111
KBGR 192138Z 35011KT 10SM BKN020 OVC036 M07/M11 A2966 RMK AO2 T10721111
KBGR 192053Z 36010KT 10SM SCT020 BKN040 BKN200 M07/M11 A2963 RMK AO2 SLP037 T10721106 53022
KBGR 191953Z 01010KT 10SM BKN016 OVC040 M06/M09 A2959 RMK AO2 SLP025 T10561089
KBGR 191853Z 01012KT 10SM SCT016 OVC041 M06/M09 A2956 RMK AO2 SLP015 T10611089
KBGR 191850Z 01011KT 10SM FEW016 OVC041 M06/M09 A2956 RMK AO2
KBGR 191753Z 34008KT 10SM BKN016 BKN043 OVC150 M06/M09 A2955 RMK AO2 SLP012 4/008 P0001 60002 T10611094 11061 21106 58003